Time;durP1;ratioP1;P1;durP2;ratioP2;P2;SDS_P1;SDS_P2;PMS_P1;PMS_P2;Temp;Humidity;BMP_temperature;BMP_pressure;BME280_temperature;BME280_humidity;BME280_pressure;Samples;Min_cycle;Max_cycle;Signal;HPM_P1;HPM_P2
2022/05/06 00:01:29;;;;;;;7.78;6.00;;;;;;;;;;5062617;28;24522;-46
2022/05/06 00:03:54;;;;;;;6.03;5.43;;;;;;;;;;5061601;28;24525;-46
2022/05/06 00:06:20;;;;;;;6.95;6.25;;;;;;;;;;5060717;28;24519;-46
2022/05/06 00:08:45;;;;;;;6.57;5.97;;;;;;;;;;5063772;28;24848;-46
2022/05/06 00:11:10;;;;;;;6.60;6.00;;;;;;;;;;5062365;28;24959;-46
2022/05/06 00:13:35;;;;;;;6.63;6.03;;;;;;;;;;5062351;28;25275;-46
2022/05/06 00:16:01;;;;;;;5.80;5.40;;;;;;;;;;5062105;28;24425;-46
2022/05/06 00:18:26;;;;;;;5.83;5.43;;;;;;;;;;5060317;28;26605;-46
2022/05/06 00:20:51;;;;;;;5.90;5.40;;;;;;;;;;5063589;28;24472;-46
2022/05/06 00:23:16;;;;;;;6.20;5.60;;;;;;;;;;5062062;28;24513;-46
2022/05/06 00:25:41;;;;;;;7.25;6.10;;;;;;;;;;5061096;28;24513;-46
2022/05/06 00:28:06;;;;;;;7.53;6.10;;;;;;;;;;5059560;28;24525;-45
2022/05/06 00:30:32;;;;;;;6.70;6.10;;;;;;;;;;5060404;28;25082;-46
2022/05/06 00:32:58;;;;;;;6.97;6.13;;;;;;;;;;5061388;28;24473;-46
2022/05/06 00:35:23;;;;;;;6.30;5.70;;;;;;;;;;5059902;28;24431;-45
2022/05/06 00:37:48;;;;;;;7.60;6.80;;;;;;;;;;5062948;28;25084;-45
2022/05/06 00:40:16;;;;;;;6.30;5.80;;;;;;;;;;5061192;28;24462;-46
2022/05/06 00:42:41;;;;;;;7.15;5.97;;;;;;;;;;5059457;28;24434;-45
2022/05/06 00:45:06;;;;;;;7.27;6.57;;;;;;;;;;5061802;28;24548;-46
2022/05/06 00:47:33;;;;;;;6.37;5.87;;;;;;;;;;5060996;28;24430;-46
2022/05/06 00:50:00;;;;;;;7.90;6.70;;;;;;;;;;5061837;28;24530;-46
2022/05/06 00:52:25;;;;;;;6.47;5.95;;;;;;;;;;5060997;28;24514;-46
2022/05/06 00:54:51;;;;;;;6.55;5.95;;;;;;;;;;5059616;28;24497;-46
2022/05/06 00:57:17;;;;;;;6.37;5.77;;;;;;;;;;5060090;28;24560;-46
2022/05/06 01:02:26;;;;;;;6.68;6.07;;;;;;;;;;5060457;28;24683;-46
2022/05/06 01:04:51;;;;;;;5.70;5.20;;;;;;;;;;5057788;28;24438;-46
2022/05/06 01:07:18;;;;;;;6.00;5.50;;;;;;;;;;5061006;28;24453;-46
2022/05/06 01:09:43;;;;;;;5.50;5.00;;;;;;;;;;5060997;28;24811;-46
2022/05/06 01:12:08;;;;;;;5.68;4.80;;;;;;;;;;5060495;28;24914;-46
2022/05/06 01:14:33;;;;;;;6.43;5.10;;;;;;;;;;5058641;28;24778;-46
2022/05/06 01:16:59;;;;;;;6.90;5.03;;;;;;;;;;5060775;28;24448;-46
2022/05/06 01:19:24;;;;;;;6.03;5.43;;;;;;;;;;5054623;28;26921;-46
2022/05/06 01:21:52;;;;;;;6.17;5.53;;;;;;;;;;5061417;28;24987;-46
2022/05/06 01:24:17;;;;;;;6.07;5.45;;;;;;;;;;5061513;28;24433;-46
2022/05/06 01:26:52;;;;;;;7.18;5.90;;;;;;;;;;5057744;28;24434;-46
2022/05/06 01:29:17;;;;;;;7.53;6.00;;;;;;;;;;5060568;28;24474;-45
2022/05/06 01:31:43;;;;;;;7.97;5.97;;;;;;;;;;5059327;28;24544;-46
2022/05/06 01:34:09;;;;;;;7.37;5.73;;;;;;;;;;5058546;28;24426;-46
2022/05/06 01:36:35;;;;;;;8.30;5.80;;;;;;;;;;5058794;28;24972;-46
2022/05/06 01:39:01;;;;;;;7.23;5.73;;;;;;;;;;5058507;28;24437;-47
2022/05/06 01:41:27;;;;;;;7.93;5.70;;;;;;;;;;5060282;28;24472;-48
2022/05/06 01:43:55;;;;;;;7.38;5.90;;;;;;;;;;5059063;28;24541;-46
2022/05/06 01:46:21;;;;;;;6.93;6.22;;;;;;;;;;5059297;28;24524;-47
2022/05/06 01:48:47;;;;;;;6.43;5.50;;;;;;;;;;5060530;28;24468;-46
2022/05/06 01:51:16;;;;;;;6.55;5.95;;;;;;;;;;5058939;28;24559;-46
2022/05/06 01:53:41;;;;;;;6.55;5.95;;;;;;;;;;5058130;28;24430;-46
2022/05/06 01:56:08;;;;;;;7.68;6.68;;;;;;;;;;5060097;28;25429;-46
2022/05/06 01:58:33;;;;;;;6.83;6.23;;;;;;;;;;5060680;28;24439;-46
2022/05/06 02:00:58;;;;;;;6.90;6.20;;;;;;;;;;5058660;28;24782;-46
2022/05/06 02:06:07;;;;;;;7.28;6.50;;;;;;;;;;5057108;28;24983;-47
2022/05/06 02:08:32;;;;;;;7.03;6.43;;;;;;;;;;5058336;28;24427;-46
2022/05/06 02:10:58;;;;;;;8.27;6.85;;;;;;;;;;5059036;28;25351;-46
2022/05/06 02:13:23;;;;;;;7.45;6.75;;;;;;;;;;5059393;28;24462;-46
2022/05/06 02:15:48;;;;;;;7.50;6.80;;;;;;;;;;5059160;28;25061;-46
2022/05/06 02:18:13;;;;;;;7.55;6.75;;;;;;;;;;5058480;28;25031;-45
2022/05/06 02:20:38;;;;;;;7.50;6.80;;;;;;;;;;5057828;28;24449;-46
2022/05/06 02:23:04;;;;;;;8.03;6.87;;;;;;;;;;5057691;28;24437;-46
2022/05/06 02:25:29;;;;;;;7.93;7.23;;;;;;;;;;5057318;28;24857;-46
2022/05/06 02:27:54;;;;;;;7.63;6.82;;;;;;;;;;5058108;28;24441;-46
2022/05/06 02:33:15;;;;;;;8.13;7.32;;;;;;;;;;5058822;28;25028;-46
2022/05/06 02:35:43;;;;;;;7.80;6.90;;;;;;;;;;5057267;28;24437;-46
2022/05/06 02:38:09;;;;;;;7.90;7.20;;;;;;;;;;5058556;28;24517;-45
2022/05/06 02:40:38;;;;;;;7.97;7.28;;;;;;;;;;5058588;28;24517;-46
2022/05/06 02:43:04;;;;;;;8.40;7.50;;;;;;;;;;5058603;28;24518;-46
2022/05/06 02:45:29;;;;;;;7.38;6.68;;;;;;;;;;5056968;28;24432;-47
2022/05/06 02:47:56;;;;;;;8.00;7.30;;;;;;;;;;5056811;28;25019;-47
2022/05/06 02:50:21;;;;;;;8.30;7.50;;;;;;;;;;5057411;28;24425;-46
2022/05/06 02:52:46;;;;;;;7.85;7.05;;;;;;;;;;5062901;28;24995;-46
2022/05/06 02:55:11;;;;;;;8.30;7.50;;;;;;;;;;5063206;28;24479;-47
2022/05/06 02:57:36;;;;;;;8.30;7.50;;;;;;;;;;5063946;28;24805;-45
2022/05/06 03:00:03;;;;;;;7.80;7.10;;;;;;;;;;5064060;28;24932;-45
2022/05/06 03:02:29;;;;;;;8.38;7.68;;;;;;;;;;5064521;28;25493;-46
2022/05/06 03:04:55;;;;;;;11.85;10.48;;;;;;;;;;5065388;28;24525;-46
2022/05/06 03:07:20;;;;;;;8.63;7.78;;;;;;;;;;5066284;28;24495;-45
2022/05/06 03:09:45;;;;;;;8.52;7.72;;;;;;;;;;5067967;28;24429;-46
2022/05/06 03:12:10;;;;;;;8.53;7.43;;;;;;;;;;5064137;28;24455;-46
2022/05/06 03:14:35;;;;;;;7.57;6.87;;;;;;;;;;5064354;28;24980;-46
2022/05/06 03:17:00;;;;;;;7.10;6.50;;;;;;;;;;5064769;28;24841;-45
2022/05/06 03:19:26;;;;;;;6.85;6.03;;;;;;;;;;5066286;28;25109;-46
2022/05/06 03:21:52;;;;;;;8.45;6.53;;;;;;;;;;5065629;28;24426;-46
2022/05/06 03:24:17;;;;;;;6.88;6.28;;;;;;;;;;5064967;28;24441;-46
2022/05/06 03:26:42;;;;;;;6.40;5.20;;;;;;;;;;5065208;28;24445;-46
2022/05/06 03:29:08;;;;;;;5.90;4.90;;;;;;;;;;5067656;28;24418;-45
2022/05/06 03:31:33;;;;;;;6.40;5.80;;;;;;;;;;5066266;28;24425;-46
2022/05/06 03:33:58;;;;;;;5.87;5.37;;;;;;;;;;5067888;28;24585;-46
2022/05/06 03:36:24;;;;;;;6.30;5.80;;;;;;;;;;5065393;28;24426;-46
2022/05/06 03:38:49;;;;;;;5.97;5.05;;;;;;;;;;5055016;28;25159;-46
2022/05/06 03:41:16;;;;;;;6.65;6.05;;;;;;;;;;5066648;28;24457;-46
2022/05/06 03:43:41;;;;;;;6.17;5.53;;;;;;;;;;5066414;28;24418;-50
2022/05/06 03:46:06;;;;;;;6.23;5.20;;;;;;;;;;5066431;28;24425;-46
2022/05/06 03:48:33;;;;;;;6.00;5.40;;;;;;;;;;5066074;28;24454;-46
2022/05/06 03:53:42;;;;;;;5.85;5.25;;;;;;;;;;5066890;28;24421;-45
2022/05/06 03:56:07;;;;;;;8.97;6.00;;;;;;;;;;5066293;28;24431;-45
2022/05/06 03:58:33;;;;;;;6.60;6.00;;;;;;;;;;5066326;28;24437;-45
2022/05/06 04:00:58;;;;;;;8.02;5.97;;;;;;;;;;5066839;28;24437;-44
2022/05/06 04:03:23;;;;;;;7.70;5.60;;;;;;;;;;5064710;28;24467;-45
2022/05/06 04:05:49;;;;;;;6.70;5.70;;;;;;;;;;5063407;28;24524;-46
2022/05/06 04:08:14;;;;;;;6.50;5.90;;;;;;;;;;5065518;28;24434;-45
2022/05/06 04:10:39;;;;;;;7.10;5.50;;;;;;;;;;5064473;28;24441;-46
2022/05/06 04:13:04;;;;;;;6.10;5.50;;;;;;;;;;5059535;28;24441;-46
2022/05/06 04:15:32;;;;;;;7.28;5.88;;;;;;;;;;5062043;28;24436;-46
2022/05/06 04:17:57;;;;;;;7.80;5.72;;;;;;;;;;5063037;28;24465;-45
2022/05/06 04:25:50;;;;;;;6.40;5.80;;;;;;;;;;5059049;28;24462;-45
2022/05/06 04:28:16;;;;;;;5.80;5.30;;;;;;;;;;5059347;28;24826;-44
2022/05/06 04:30:41;;;;;;;7.60;6.03;;;;;;;;;;5057075;28;25286;-45
2022/05/06 04:33:06;;;;;;;5.63;5.10;;;;;;;;;;5058635;28;25042;-45
2022/05/06 04:35:31;;;;;;;6.90;5.60;;;;;;;;;;5060086;28;24453;-45
2022/05/06 04:37:56;;;;;;;5.70;5.20;;;;;;;;;;5059265;28;24829;-45
2022/05/06 04:40:21;;;;;;;6.20;5.50;;;;;;;;;;5059768;28;24432;-45
2022/05/06 04:42:46;;;;;;;6.25;5.63;;;;;;;;;;5060490;28;24437;-45
2022/05/06 04:45:12;;;;;;;7.47;6.05;;;;;;;;;;5060086;28;24475;-47
2022/05/06 04:47:37;;;;;;;6.10;5.50;;;;;;;;;;5060357;28;25881;-45
2022/05/06 04:50:03;;;;;;;5.70;5.20;;;;;;;;;;5058879;28;25252;-45
2022/05/06 04:52:28;;;;;;;6.53;5.60;;;;;;;;;;5059063;28;24457;-46
2022/05/06 04:54:53;;;;;;;5.83;4.93;;;;;;;;;;5058400;28;24436;-45
2022/05/06 04:57:18;;;;;;;5.77;5.27;;;;;;;;;;5057288;28;24656;-46
2022/05/06 04:59:47;;;;;;;5.28;4.78;;;;;;;;;;5059250;28;25001;-46
2022/05/06 05:02:13;;;;;;;5.85;5.30;;;;;;;;;;5059281;28;25277;-46
2022/05/06 05:04:39;;;;;;;5.77;5.20;;;;;;;;;;5058017;28;24432;-46
2022/05/06 05:07:04;;;;;;;5.20;4.80;;;;;;;;;;5059279;28;24484;-46
2022/05/06 05:09:29;;;;;;;5.55;5.15;;;;;;;;;;5058464;28;24434;-45
2022/05/06 05:11:54;;;;;;;5.60;4.95;;;;;;;;;;5059379;28;24429;-46
2022/05/06 05:14:19;;;;;;;4.90;4.50;;;;;;;;;;5057782;28;24438;-46
2022/05/06 05:16:45;;;;;;;5.30;4.80;;;;;;;;;;5059589;28;25081;-46
2022/05/06 05:19:10;;;;;;;5.28;4.78;;;;;;;;;;5057218;28;24552;-45
2022/05/06 05:21:35;;;;;;;6.00;4.97;;;;;;;;;;5062849;28;24433;-46
2022/05/06 05:24:00;;;;;;;4.83;4.43;;;;;;;;;;5059343;28;25293;-46
2022/05/06 05:26:25;;;;;;;5.90;5.30;;;;;;;;;;5057955;28;25090;-46
2022/05/06 05:28:51;;;;;;;4.88;4.47;;;;;;;;;;5062813;28;24446;-47
2022/05/06 05:31:16;;;;;;;4.57;4.20;;;;;;;;;;5060111;28;25009;-46
2022/05/06 05:33:41;;;;;;;4.90;4.40;;;;;;;;;;5060711;28;24518;-46
2022/05/06 05:36:06;;;;;;;4.97;4.57;;;;;;;;;;5060161;28;25124;-45
2022/05/06 05:38:31;;;;;;;4.57;4.18;;;;;;;;;;5060782;28;24488;-46
2022/05/06 05:40:56;;;;;;;6.60;6.00;;;;;;;;;;5060568;28;24510;-47
2022/05/06 05:49:03;;;;;;;6.07;5.35;;;;;;;;;;5027952;28;25049;-46
2022/05/06 05:51:28;;;;;;;6.67;5.70;;;;;;;;;;5061145;28;24579;-45
2022/05/06 05:53:53;;;;;;;6.07;5.47;;;;;;;;;;5060984;28;24414;-46
2022/05/06 05:56:19;;;;;;;6.60;6.00;;;;;;;;;;5060969;28;24429;-46
2022/05/06 05:58:45;;;;;;;6.45;5.78;;;;;;;;;;5062492;28;24499;-46
2022/05/06 06:01:10;;;;;;;6.10;5.60;;;;;;;;;;5061432;28;24501;-46
2022/05/06 06:03:35;;;;;;;6.72;5.97;;;;;;;;;;5060305;28;24426;-46
2022/05/06 06:06:00;;;;;;;5.40;4.90;;;;;;;;;;5060843;28;24421;-46
2022/05/06 06:08:25;;;;;;;5.30;4.90;;;;;;;;;;5061858;28;24990;-46
2022/05/06 06:10:50;;;;;;;5.70;5.10;;;;;;;;;;5058046;28;25085;-46
2022/05/06 06:13:16;;;;;;;7.30;6.20;;;;;;;;;;5060853;28;24968;-47
2022/05/06 06:15:41;;;;;;;9.18;5.80;;;;;;;;;;5061027;28;24891;-46
2022/05/06 06:18:06;;;;;;;6.10;5.60;;;;;;;;;;5060103;28;24517;-46
2022/05/06 06:20:32;;;;;;;7.37;5.80;;;;;;;;;;5062060;28;24426;-46
2022/05/06 06:22:57;;;;;;;6.00;5.50;;;;;;;;;;5058226;28;24440;-46
2022/05/06 06:25:22;;;;;;;6.63;5.90;;;;;;;;;;5059685;28;25166;-45
2022/05/06 06:27:48;;;;;;;6.25;5.65;;;;;;;;;;5060107;28;24477;-46
2022/05/06 06:30:13;;;;;;;5.93;5.43;;;;;;;;;;5057937;28;25004;-45
2022/05/06 06:32:38;;;;;;;6.60;6.00;;;;;;;;;;5061672;28;25033;-46
2022/05/06 06:35:03;;;;;;;6.35;5.75;;;;;;;;;;5060578;28;24503;-46
2022/05/06 06:37:31;;;;;;;7.83;6.70;;;;;;;;;;5060901;28;25105;-45
2022/05/06 06:39:56;;;;;;;6.53;6.03;;;;;;;;;;5058673;28;24434;-46
2022/05/06 06:42:21;;;;;;;6.70;6.10;;;;;;;;;;5061107;28;24430;-47
2022/05/06 06:44:46;;;;;;;7.30;6.00;;;;;;;;;;5059676;28;24434;-46
2022/05/06 06:47:13;;;;;;;6.80;6.10;;;;;;;;;;5060892;28;25116;-46
2022/05/06 06:49:39;;;;;;;7.05;6.35;;;;;;;;;;5060418;28;24429;-46
2022/05/06 06:52:04;;;;;;;6.20;5.70;;;;;;;;;;5061630;28;24437;-46
2022/05/06 06:54:29;;;;;;;6.20;5.60;;;;;;;;;;5060886;28;24437;-46
2022/05/06 06:56:54;;;;;;;7.53;5.40;;;;;;;;;;5061228;28;24790;-47
2022/05/06 06:59:19;;;;;;;7.43;6.72;;;;;;;;;;5061674;28;24430;-46
2022/05/06 07:01:44;;;;;;;7.07;6.40;;;;;;;;;;5062209;28;24426;-47
2022/05/06 07:04:10;;;;;;;6.37;5.87;;;;;;;;;;5062722;28;24434;-46
2022/05/06 07:12:22;;;;;;;7.95;5.90;;;;;;;;;;5042863;28;24523;-46
2022/05/06 07:14:47;;;;;;;7.10;6.40;;;;;;;;;;5053607;28;24427;-46
2022/05/06 07:17:13;;;;;;;6.68;6.13;;;;;;;;;;5061356;28;24999;-46
2022/05/06 07:19:38;;;;;;;7.35;6.55;;;;;;;;;;5061093;28;24428;-46
2022/05/06 07:22:04;;;;;;;7.25;6.43;;;;;;;;;;5061618;28;25069;-46
2022/05/06 07:24:30;;;;;;;6.87;5.90;;;;;;;;;;5062083;28;24514;-46
2022/05/06 07:26:56;;;;;;;6.50;5.90;;;;;;;;;;5059415;28;25056;-46
2022/05/06 07:29:22;;;;;;;6.80;6.20;;;;;;;;;;5060058;28;24786;-46
2022/05/06 07:31:47;;;;;;;6.90;6.20;;;;;;;;;;5062072;28;25268;-47
2022/05/06 07:34:15;;;;;;;6.32;5.82;;;;;;;;;;5060443;28;24465;-46
2022/05/06 07:36:41;;;;;;;6.50;5.90;;;;;;;;;;5060884;28;24793;-46
2022/05/06 07:39:07;;;;;;;7.10;5.93;;;;;;;;;;5062070;28;24417;-45
2022/05/06 07:41:33;;;;;;;7.68;6.90;;;;;;;;;;5064743;28;24434;-46
2022/05/06 07:43:58;;;;;;;7.27;6.67;;;;;;;;;;5064611;28;24526;-47
2022/05/06 07:46:25;;;;;;;7.88;7.18;;;;;;;;;;5064879;28;24438;-46
2022/05/06 07:48:50;;;;;;;6.30;5.70;;;;;;;;;;5065205;28;24421;-46
2022/05/06 07:51:15;;;;;;;8.97;7.73;;;;;;;;;;5064627;28;24460;-46
2022/05/06 07:53:40;;;;;;;6.93;6.33;;;;;;;;;;5064650;28;24876;-46
2022/05/06 07:56:05;;;;;;;7.85;7.05;;;;;;;;;;5063585;28;24429;-46
2022/05/06 07:58:30;;;;;;;8.87;8.00;;;;;;;;;;5065474;28;25250;-46
2022/05/06 08:00:56;;;;;;;9.30;8.38;;;;;;;;;;5064411;28;25117;-47
2022/05/06 08:06:05;;;;;;;8.07;6.80;;;;;;;;;;5065778;28;24429;-46
2022/05/06 08:08:31;;;;;;;8.20;7.40;;;;;;;;;;5064102;28;24868;-47
2022/05/06 08:10:56;;;;;;;8.32;7.50;;;;;;;;;;5062905;28;24592;-46
2022/05/06 08:13:22;;;;;;;7.65;7.05;;;;;;;;;;5065151;28;24793;-46
2022/05/06 08:15:48;;;;;;;9.63;8.73;;;;;;;;;;5064149;28;24472;-46
2022/05/06 08:18:13;;;;;;;7.70;6.90;;;;;;;;;;5064030;28;24851;-46
2022/05/06 08:20:39;;;;;;;8.00;7.30;;;;;;;;;;5064251;28;25170;-46
2022/05/06 08:23:05;;;;;;;11.23;8.98;;;;;;;;;;5064907;28;24483;-46
2022/05/06 08:25:30;;;;;;;9.27;8.37;;;;;;;;;;5064257;28;24434;-46
2022/05/06 08:27:55;;;;;;;10.45;9.55;;;;;;;;;;5063311;28;24431;-46
2022/05/06 08:30:20;;;;;;;10.67;9.70;;;;;;;;;;5063647;28;24492;-46
2022/05/06 08:32:45;;;;;;;8.90;8.10;;;;;;;;;;5062400;28;24438;-46
2022/05/06 08:35:10;;;;;;;8.00;7.30;;;;;;;;;;5064815;28;24924;-46
2022/05/06 08:37:43;;;;;;;8.07;7.27;;;;;;;;;;5062902;28;24809;-46
2022/05/06 08:40:09;;;;;;;9.50;8.70;;;;;;;;;;5063631;28;24430;-46
2022/05/06 08:42:34;;;;;;;8.07;7.38;;;;;;;;;;5062639;28;25089;-46
2022/05/06 08:53:11;;;;;;;7.78;7.07;;;;;;;;;;5064266;28;24468;-46
2022/05/06 08:55:36;;;;;;;8.20;7.50;;;;;;;;;;5063581;28;24434;-46
2022/05/06 08:58:01;;;;;;;7.88;7.18;;;;;;;;;;5062787;28;24475;-46
2022/05/06 09:00:28;;;;;;;9.13;8.33;;;;;;;;;;5062225;28;24426;-47
2022/05/06 09:02:53;;;;;;;9.90;9.00;;;;;;;;;;5062917;28;24519;-46
2022/05/06 09:05:18;;;;;;;9.00;8.20;;;;;;;;;;5062738;28;24445;-47
2022/05/06 09:07:53;;;;;;;11.10;8.85;;;;;;;;;;5063125;28;24512;-46
2022/05/06 09:10:18;;;;;;;9.95;8.95;;;;;;;;;;5064039;28;24511;-46
2022/05/06 09:12:45;;;;;;;9.75;8.75;;;;;;;;;;5063417;28;24414;-47
2022/05/06 09:17:56;;;;;;;9.10;8.10;;;;;;;;;;5062823;28;25018;-46
2022/05/06 09:20:21;;;;;;;9.20;8.30;;;;;;;;;;5062653;28;24462;-46
2022/05/06 09:22:48;;;;;;;14.43;9.20;;;;;;;;;;5061183;28;24427;-46
2022/05/06 09:25:31;;;;;;;10.40;9.25;;;;;;;;;;5063089;28;24418;-46
2022/05/06 09:27:57;;;;;;;10.10;9.10;;;;;;;;;;5062947;28;24438;-46
2022/05/06 09:30:22;;;;;;;9.90;9.00;;;;;;;;;;5061694;28;25228;-46
2022/05/06 09:32:47;;;;;;;9.55;8.57;;;;;;;;;;5062374;28;24457;-46
2022/05/06 09:35:13;;;;;;;9.90;8.93;;;;;;;;;;5062089;28;24513;-46
2022/05/06 09:37:40;;;;;;;11.70;10.15;;;;;;;;;;5063491;28;24461;-46
2022/05/06 09:40:09;;;;;;;8.68;7.78;;;;;;;;;;5063421;28;24515;-46
2022/05/06 09:42:44;;;;;;;8.83;8.03;;;;;;;;;;5061397;28;24964;-47
2022/05/06 09:45:11;;;;;;;8.40;7.60;;;;;;;;;;5061923;28;24442;-46
2022/05/06 09:47:37;;;;;;;12.00;10.90;;;;;;;;;;5062433;28;25136;-47
2022/05/06 09:50:03;;;;;;;9.20;8.27;;;;;;;;;;5062134;28;24418;-46
2022/05/06 09:52:29;;;;;;;8.95;8.10;;;;;;;;;;5061537;28;24936;-46
2022/05/06 09:54:54;;;;;;;9.40;8.60;;;;;;;;;;5061819;28;24480;-46
2022/05/06 09:57:19;;;;;;;11.13;9.90;;;;;;;;;;5063205;28;24777;-46
2022/05/06 09:59:45;;;;;;;10.57;9.57;;;;;;;;;;5064069;28;24440;-47
2022/05/06 10:02:10;;;;;;;9.40;8.50;;;;;;;;;;5061253;28;24421;-46
2022/05/06 10:04:36;;;;;;;8.18;7.43;;;;;;;;;;5061613;28;24533;-46
2022/05/06 10:07:02;;;;;;;8.93;8.03;;;;;;;;;;5061623;28;24979;-46
2022/05/06 10:09:32;;;;;;;7.80;7.20;;;;;;;;;;5059126;28;25034;-45
2022/05/06 10:12:02;;;;;;;8.20;7.40;;;;;;;;;;5062485;28;24427;-46
2022/05/06 10:14:28;;;;;;;8.20;7.40;;;;;;;;;;5062287;28;24478;-46
2022/05/06 10:16:53;;;;;;;8.05;7.30;;;;;;;;;;5062855;28;24762;-46
2022/05/06 10:19:44;;;;;;;8.10;7.15;;;;;;;;;;5061688;28;24554;-47
2022/05/06 10:22:09;;;;;;;9.40;8.60;;;;;;;;;;5062065;28;24618;-47
2022/05/06 10:24:39;;;;;;;6.73;6.13;;;;;;;;;;5062419;28;24660;-46
2022/05/06 10:32:25;;;;;;;8.82;6.95;;;;;;;;;;5061589;28;25234;-47
2022/05/06 10:33:11;;;;;;;7.82;6.78;;;;;;;;;;5062374;28;25332;-44
2022/05/06 10:35:37;;;;;;;7.05;5.88;;;;;;;;;;5062100;28;24472;-44
2022/05/06 10:38:23;;;;;;;7.30;5.80;;;;;;;;;;5061838;28;24475;-44
2022/05/06 10:40:52;;;;;;;5.55;5.00;;;;;;;;;;5062771;28;24473;-46
2022/05/06 10:43:53;;;;;;;5.43;4.93;;;;;;;;;;5062094;28;25128;-45
2022/05/06 10:46:34;;;;;;;4.80;4.40;;;;;;;;;;4965414;28;24471;-44
2022/05/06 10:49:18;;;;;;;4.75;4.32;;;;;;;;;;5051471;28;25001;-45
2022/05/06 10:51:43;;;;;;;4.20;3.80;;;;;;;;;;5061025;28;24822;-45
2022/05/06 10:54:15;;;;;;;4.60;4.20;;;;;;;;;;5060201;28;24434;-45
2022/05/06 10:56:44;;;;;;;5.35;4.85;;;;;;;;;;5060591;28;24530;-45
2022/05/06 10:59:09;;;;;;;6.32;5.15;;;;;;;;;;5057292;28;24605;-45
2022/05/06 11:01:34;;;;;;;5.00;4.50;;;;;;;;;;5059529;28;24434;-46
2022/05/06 11:03:59;;;;;;;6.15;5.55;;;;;;;;;;5061875;28;24736;-45
2022/05/06 11:06:24;;;;;;;5.35;4.90;;;;;;;;;;5060541;28;24888;-45
2022/05/06 11:08:50;;;;;;;5.45;4.80;;;;;;;;;;5061796;28;24430;-45
2022/05/06 11:11:16;;;;;;;5.03;4.53;;;;;;;;;;5057419;28;24435;-45
2022/05/06 11:13:44;;;;;;;6.00;4.60;;;;;;;;;;5062331;28;25986;-45
2022/05/06 11:16:12;;;;;;;5.65;5.10;;;;;;;;;;5064892;28;24995;-45
2022/05/06 11:18:41;;;;;;;6.20;5.60;;;;;;;;;;5064329;28;25122;-45
2022/05/06 11:21:18;;;;;;;4.65;4.25;;;;;;;;;;5063819;28;24441;-45
2022/05/06 11:23:43;;;;;;;5.20;4.70;;;;;;;;;;5064677;28;24426;-44
2022/05/06 11:26:08;;;;;;;4.63;4.22;;;;;;;;;;5065415;28;24477;-45
2022/05/06 11:28:35;;;;;;;5.40;5.00;;;;;;;;;;5063256;28;24430;-44
2022/05/06 11:31:01;;;;;;;5.35;4.55;;;;;;;;;;5064243;28;26703;-45
2022/05/06 11:33:27;;;;;;;4.68;4.28;;;;;;;;;;5064735;28;24429;-46
2022/05/06 11:36:01;;;;;;;5.00;4.60;;;;;;;;;;5064618;28;24722;-46
2022/05/06 11:38:30;;;;;;;6.40;5.80;;;;;;;;;;5064602;28;24431;-45
2022/05/06 11:40:55;;;;;;;5.45;4.95;;;;;;;;;;5065077;28;24414;-45
2022/05/06 11:43:21;;;;;;;5.27;4.83;;;;;;;;;;5064731;28;24438;-44
2022/05/06 11:48:40;;;;;;;6.00;5.50;;;;;;;;;;5063847;28;25395;-47
2022/05/06 11:51:05;;;;;;;6.28;5.10;;;;;;;;;;5063661;28;24554;-45
2022/05/06 11:53:31;;;;;;;6.80;5.70;;;;;;;;;;5064227;28;25171;-45
2022/05/06 11:55:56;;;;;;;6.50;5.70;;;;;;;;;;5064094;28;24437;-45
2022/05/06 11:58:23;;;;;;;5.30;4.90;;;;;;;;;;5062193;28;24537;-46
2022/05/06 12:00:49;;;;;;;5.20;4.80;;;;;;;;;;5065094;28;24543;-45
2022/05/06 12:03:15;;;;;;;4.70;4.40;;;;;;;;;;5064002;28;25023;-45
2022/05/06 12:05:40;;;;;;;6.57;5.87;;;;;;;;;;5065016;28;24440;-45
2022/05/06 12:08:07;;;;;;;5.60;5.20;;;;;;;;;;5064470;28;24533;-45
2022/05/06 12:10:36;;;;;;;6.00;5.60;;;;;;;;;;5064407;28;24505;-45
2022/05/06 12:13:05;;;;;;;6.50;5.90;;;;;;;;;;5064063;28;24433;-45
2022/05/06 12:15:30;;;;;;;5.70;5.25;;;;;;;;;;5063100;28;24823;-45
2022/05/06 12:18:09;;;;;;;5.63;5.13;;;;;;;;;;5063506;28;24742;-45
2022/05/06 12:20:36;;;;;;;6.40;5.50;;;;;;;;;;5062794;28;25250;-45
2022/05/06 12:23:01;;;;;;;6.45;5.40;;;;;;;;;;5064219;28;24434;-46
2022/05/06 12:25:27;;;;;;;6.78;5.50;;;;;;;;;;5061468;28;24474;-45
2022/05/06 12:28:02;;;;;;;6.57;5.97;;;;;;;;;;5064440;28;24573;-46
2022/05/06 12:30:29;;;;;;;6.72;6.13;;;;;;;;;;5064204;28;24592;-45
2022/05/06 12:33:09;;;;;;;6.00;5.45;;;;;;;;;;5063426;28;24438;-45
2022/05/06 12:35:56;;;;;;;6.50;5.90;;;;;;;;;;5062745;28;24430;-45
2022/05/06 12:38:26;;;;;;;6.10;5.50;;;;;;;;;;5063429;28;24430;-45
2022/05/06 12:40:52;;;;;;;6.60;6.10;;;;;;;;;;5063294;28;24449;-45
2022/05/06 12:43:24;;;;;;;6.25;5.72;;;;;;;;;;5063865;28;24441;-45
2022/05/06 12:45:53;;;;;;;6.70;6.00;;;;;;;;;;5063415;28;24441;-45
2022/05/06 12:51:06;;;;;;;6.10;5.50;;;;;;;;;;5064669;28;24639;-45
2022/05/06 12:53:31;;;;;;;4.88;4.47;;;;;;;;;;5062339;28;24892;-45
2022/05/06 12:55:56;;;;;;;5.90;5.50;;;;;;;;;;5064121;28;24473;-46
2022/05/06 12:58:27;;;;;;;5.63;5.20;;;;;;;;;;5063805;28;24418;-46
2022/05/06 13:00:53;;;;;;;5.10;4.70;;;;;;;;;;5063693;28;24484;-45
2022/05/06 13:03:18;;;;;;;6.93;5.57;;;;;;;;;;5063786;28;24491;-46
2022/05/06 13:05:43;;;;;;;5.00;4.60;;;;;;;;;;5063790;28;24430;-46
2022/05/06 13:08:09;;;;;;;5.00;4.60;;;;;;;;;;5064020;28;24445;-45
2022/05/06 13:10:34;;;;;;;5.20;4.80;;;;;;;;;;5063080;28;24480;-45
2022/05/06 13:12:59;;;;;;;5.30;4.90;;;;;;;;;;5063591;28;24418;-45
2022/05/06 13:15:24;;;;;;;4.88;4.57;;;;;;;;;;5063165;28;24488;-45
2022/05/06 13:17:49;;;;;;;5.70;4.50;;;;;;;;;;5063364;28;24987;-45
2022/05/06 13:20:14;;;;;;;5.13;4.72;;;;;;;;;;5062670;28;24450;-46
2022/05/06 13:22:40;;;;;;;5.30;4.78;;;;;;;;;;5061787;28;24430;-46
2022/05/06 13:25:05;;;;;;;5.23;4.80;;;;;;;;;;5060598;28;24773;-48
2022/05/06 13:27:30;;;;;;;6.00;5.00;;;;;;;;;;5060333;28;24516;-46
2022/05/06 13:29:55;;;;;;;6.03;5.53;;;;;;;;;;5061074;28;24446;-47
2022/05/06 13:32:20;;;;;;;5.80;5.07;;;;;;;;;;5059807;28;24966;-46
2022/05/06 13:34:45;;;;;;;5.43;4.93;;;;;;;;;;5062035;28;24480;-46
2022/05/06 13:37:11;;;;;;;6.40;5.80;;;;;;;;;;5060574;28;24534;-46
2022/05/06 13:39:36;;;;;;;6.55;5.95;;;;;;;;;;5060885;28;24522;-45
2022/05/06 13:42:01;;;;;;;5.00;4.60;;;;;;;;;;5061670;28;24660;-45
2022/05/06 13:44:26;;;;;;;6.13;5.20;;;;;;;;;;5060096;28;24442;-45
2022/05/06 13:46:52;;;;;;;6.07;5.47;;;;;;;;;;5061135;28;24441;-45
2022/05/06 13:49:18;;;;;;;8.60;5.82;;;;;;;;;;5060750;28;25609;-45
2022/05/06 13:51:43;;;;;;;5.77;5.27;;;;;;;;;;5058332;28;24490;-45
2022/05/06 13:54:08;;;;;;;6.50;6.00;;;;;;;;;;5061051;28;24419;-44
2022/05/06 13:59:17;;;;;;;6.33;5.73;;;;;;;;;;5060861;28;24453;-44
2022/05/06 14:01:42;;;;;;;4.97;4.68;;;;;;;;;;5059595;28;24646;-45
2022/05/06 14:04:08;;;;;;;6.10;5.50;;;;;;;;;;5060009;28;24421;-45
2022/05/06 14:06:33;;;;;;;5.55;5.15;;;;;;;;;;5057363;28;26718;-45
2022/05/06 14:08:58;;;;;;;4.90;4.50;;;;;;;;;;5059724;28;25131;-46
2022/05/06 14:11:26;;;;;;;4.20;3.90;;;;;;;;;;5055148;28;24959;-46
2022/05/06 14:13:53;;;;;;;4.70;4.40;;;;;;;;;;5059183;28;24425;-46
2022/05/06 14:16:18;;;;;;;4.90;4.50;;;;;;;;;;5058897;28;24425;-46
2022/05/06 14:18:43;;;;;;;5.10;4.70;;;;;;;;;;5059069;28;24465;-45
2022/05/06 14:21:08;;;;;;;5.63;4.60;;;;;;;;;;5060807;28;24531;-45
2022/05/06 14:23:33;;;;;;;5.50;5.00;;;;;;;;;;5061398;28;24433;-45
2022/05/06 14:25:58;;;;;;;4.70;4.30;;;;;;;;;;5062400;28;24526;-45
2022/05/06 14:28:24;;;;;;;4.25;3.95;;;;;;;;;;5061606;28;25037;-44
2022/05/06 14:30:49;;;;;;;4.60;4.20;;;;;;;;;;5062202;28;24461;-45
2022/05/06 14:33:17;;;;;;;4.70;4.40;;;;;;;;;;5061339;28;24426;-45
2022/05/06 14:35:42;;;;;;;4.63;4.30;;;;;;;;;;5061365;28;24575;-45
2022/05/06 14:38:07;;;;;;;4.80;4.40;;;;;;;;;;5061786;28;24438;-44
2022/05/06 14:40:32;;;;;;;5.60;4.73;;;;;;;;;;5061286;28;24457;-45
2022/05/06 14:42:58;;;;;;;4.60;4.30;;;;;;;;;;5062352;28;24582;-45
2022/05/06 14:45:23;;;;;;;4.40;4.00;;;;;;;;;;5061590;28;24502;-45
2022/05/06 14:47:50;;;;;;;4.10;3.80;;;;;;;;;;5061838;28;27449;-45
2022/05/06 14:50:15;;;;;;;5.30;4.80;;;;;;;;;;5060686;28;24426;-45
2022/05/06 14:52:41;;;;;;;5.50;4.60;;;;;;;;;;5062690;28;24998;-45
2022/05/06 14:55:06;;;;;;;4.65;4.30;;;;;;;;;;5060894;28;24483;-45
2022/05/06 14:57:32;;;;;;;5.70;5.20;;;;;;;;;;5061604;28;24441;-45
2022/05/06 14:59:58;;;;;;;5.47;4.97;;;;;;;;;;5061588;28;24878;-45
2022/05/06 15:02:23;;;;;;;5.40;4.43;;;;;;;;;;5061986;28;24525;-45
2022/05/06 15:04:48;;;;;;;4.50;4.10;;;;;;;;;;5061359;28;24425;-45
2022/05/06 15:07:13;;;;;;;4.50;4.10;;;;;;;;;;5062007;28;24634;-45
2022/05/06 15:09:38;;;;;;;5.50;5.00;;;;;;;;;;5062005;28;24784;-45
2022/05/06 15:12:03;;;;;;;3.60;3.30;;;;;;;;;;5062029;28;25072;-44
2022/05/06 15:14:31;;;;;;;3.30;3.10;;;;;;;;;;5061689;28;24525;-44
2022/05/06 15:17:06;;;;;;;3.53;3.33;;;;;;;;;;5061572;28;24516;-44
2022/05/06 15:19:32;;;;;;;3.72;3.40;;;;;;;;;;5061994;28;24992;-45
2022/05/06 15:22:01;;;;;;;4.10;3.70;;;;;;;;;;5061231;28;24461;-45
2022/05/06 15:24:26;;;;;;;4.32;4.03;;;;;;;;;;5060808;28;24418;-45
2022/05/06 15:26:52;;;;;;;3.80;3.50;;;;;;;;;;5060593;28;24504;-45
2022/05/06 15:29:17;;;;;;;4.32;3.95;;;;;;;;;;5060789;28;25075;-45
2022/05/06 15:31:42;;;;;;;8.10;4.80;;;;;;;;;;5059388;28;24439;-45